Time;durP1;ratioP1;P1;durP2;ratioP2;P2;SDS_P1;SDS_P2;PMS_P1;PMS_P2;Temp;Humidity;BMP_temperature;BMP_pressure;BME280_temperature;BME280_humidity;BME280_pressure;Samples;Min_cycle;Max_cycle;Signal;HPM_P1;HPM_P2
2023/03/29 00:01:35;;;;;;;0.57;0.40;;;;;;;;;;20967264;28;20202;-70
2023/03/29 00:11:38;;;;;;;2.73;1.17;;;;;;;;;;20968198;28;20205;-70
2023/03/29 00:21:39;;;;;;;3.03;1.77;;;;;;;;;;20965542;28;20260;-70
2023/03/29 00:31:44;;;;;;;4.10;2.27;;;;;;;;;;20917246;28;20256;-69
2023/03/29 00:41:49;;;;;;;0.70;0.50;;;;;;;;;;20911110;28;20206;-70
2023/03/29 00:51:51;;;;;;;0.70;0.50;;;;;;;;;;20908149;28;20210;-70
2023/03/29 01:01:57;;;;;;;1.53;0.53;;;8.10;99.90;;;;;;20907979;28;20240;-70
2023/03/29 01:12:07;;;;;;;1.13;0.50;;;;;;;;;;20906564;28;20221;-69
2023/03/29 01:22:12;;;;;;;0.57;0.57;;;;;;;;;;20906585;28;20226;-70
2023/03/29 01:32:16;;;;;;;0.77;0.47;;;;;;;;;;20906274;28;20299;-69
2023/03/29 01:42:26;;;;;;;0.47;0.20;;;8.10;99.90;;;;;;20904097;28;20222;-70
2023/03/29 01:52:38;;;;;;;1.63;0.50;;;8.10;99.90;;;;;;20904459;28;20201;-70
2023/03/29 02:02:44;;;;;;;0.90;0.40;;;8.20;99.90;;;;;;20869917;28;20217;-69
2023/03/29 02:12:45;;;;;;;3.43;0.70;;;;;;;;;;20902114;28;20205;-70
2023/03/29 02:23:01;;;;;;;0.60;0.40;;;7.90;99.90;;;;;;20900951;28;20280;-70
2023/03/29 02:33:20;;;;;;;0.70;0.50;;;8.00;99.90;;;;;;20884321;28;20634;-69
2023/03/29 02:43:23;;;;;;;0.70;0.40;;;;;;;;;;20899669;28;20272;-70
2023/03/29 02:53:32;;;;;;;1.10;0.40;;;;;;;;;;20899193;28;20194;-70
2023/03/29 03:03:34;;;;;;;0.80;0.40;;;;;;;;;;20898994;28;20256;-69
2023/03/29 03:13:37;;;;;;;0.77;0.30;;;;;;;;;;20897563;28;20567;-70
2023/03/29 03:23:39;;;;;;;0.70;0.40;;;;;;;;;;20893041;28;20294;-70
2023/03/29 03:33:41;;;;;;;2.50;0.43;;;;;;;;;;20887580;28;20221;-70
2023/03/29 03:44:06;;;;;;;1.07;0.50;;;;;;;;;;20813946;28;20218;-70
2023/03/29 03:54:08;;;;;;;0.40;0.40;;;;;;;;;;20831164;28;20436;-70
2023/03/29 04:04:10;;;;;;;0.50;0.40;;;7.10;99.90;;;;;;20824032;28;20292;-70
2023/03/29 04:14:12;;;;;;;0.60;0.50;;;;;;;;;;20902544;28;20267;-70
2023/03/29 04:24:35;;;;;;;1.73;0.60;;;;;;;;;;20910655;28;20821;-70
2023/03/29 04:34:56;;;;;;;1.10;0.43;;;;;;;;;;20910165;28;20213;-68
2023/03/29 04:44:59;;;;;;;1.17;0.63;;;;;;;;;;20908811;28;20404;-70
2023/03/29 04:55:16;;;;;;;1.50;0.83;;;;;;;;;;20908052;28;20222;-69
2023/03/29 05:05:27;;;;;;;0.70;0.50;;;;;;;;;;20907139;28;20213;-70
2023/03/29 05:15:30;;;;;;;1.07;0.63;;;;;;;;;;20906614;28;20245;-70
2023/03/29 05:25:33;;;;;;;0.97;0.60;;;;;;;;;;20888490;28;20284;-71
2023/03/29 05:35:35;;;;;;;1.57;0.80;;;;;;;;;;20881684;22;20238;-68
2023/03/29 05:45:40;;;;;;;0.57;0.50;;;;;;;;;;20822966;28;20222;-68
2023/03/29 05:55:42;;;;;;;1.00;0.70;;;;;;;;;;20823668;28;20237;-68
2023/03/29 06:05:47;;;;;;;3.60;0.83;;;;;;;;;;20822089;28;20273;-69
2023/03/29 06:15:49;;;;;;;0.50;0.50;;;;;;;;;;20820814;28;20237;-69
2023/03/29 06:25:51;;;;;;;0.97;0.60;;;;;;;;;;20820520;28;20219;-69
2023/03/29 06:35:53;;;;;;;1.27;0.90;;;;;;;;;;20819795;28;20689;-70
2023/03/29 06:46:00;;;;;;;0.53;0.47;;;7.10;99.90;;;;;;20818685;28;20230;-70
2023/03/29 06:56:13;;;;;;;1.10;0.50;;;;;;;;;;20819084;28;20244;-68
2023/03/29 07:06:21;;;;;;;0.80;0.40;;;;;;;;;;20818134;28;20210;-70
2023/03/29 07:16:24;;;;;;;3.20;1.30;;;;;;;;;;20816706;28;20288;-70
2023/03/29 07:26:50;;;;;;;2.73;1.23;;;;;;;;;;20810306;28;20575;-69
2023/03/29 07:36:53;;;;;;;1.50;0.80;;;;;;;;;;20816008;28;20226;-69
2023/03/29 07:46:58;;;;;;;1.43;0.57;;;;;;;;;;20829539;28;20226;-69
2023/03/29 07:57:00;;;;;;;0.90;0.63;;;;;;;;;;20828973;28;20241;-69
2023/03/29 08:07:07;;;;;;;0.73;0.37;;;;;;;;;;20829307;28;20222;-70
2023/03/29 08:17:36;;;;;;;0.43;0.33;;;;;;;;;;20816770;28;20602;-68
2023/03/29 08:27:39;;;;;;;0.97;0.40;;;;;;;;;;20804479;28;20588;-69
2023/03/29 08:37:42;;;;;;;2.77;0.90;;;;;;;;;;20744439;28;20592;-68
2023/03/29 08:47:52;;;;;;;0.50;0.40;;;;;;;;;;20742961;28;20246;-68
2023/03/29 08:57:55;;;;;;;0.83;0.30;;;9.10;99.90;;;;;;20742473;28;20207;-68
2023/03/29 09:08:08;;;;;;;0.20;0.20;;;;;;;;;;20743374;28;20254;-68
2023/03/29 09:18:30;;;;;;;0.80;0.57;;;;;;;;;;20743337;28;20207;-68
2023/03/29 09:28:37;;;;;;;0.40;0.40;;;;;;;;;;20742240;28;20234;-68
2023/03/29 09:38:42;;;;;;;0.67;0.30;;;10.30;99.90;;;;;;20741436;28;20234;-68
2023/03/29 09:48:51;;;;;;;0.87;0.43;;;;;;;;;;20742221;28;20242;-68
2023/03/29 09:58:53;;;;;;;0.70;0.50;;;;;;;;;;20741544;28;20211;-68
2023/03/29 10:08:57;;;;;;;0.70;0.40;;;11.00;99.90;;;;;;20741169;28;20281;-68
2023/03/29 10:19:25;;;;;;;0.70;0.43;;;11.00;99.90;;;;;;20739416;28;20611;-68
2023/03/29 10:29:39;;;;;;;1.10;0.50;;;11.70;99.90;;;;;;20747424;28;20581;-69
2023/03/29 10:39:41;;;;;;;0.83;0.50;;;;;;;;;;20739215;28;20575;-69
2023/03/29 10:49:45;;;;;;;1.27;0.70;;;;;;;;;;20746215;28;20578;-69
2023/03/29 10:59:47;;;;;;;2.37;0.90;;;;;;;;;;20805916;28;20190;-69
2023/03/29 11:10:02;;;;;;;2.27;0.60;;;13.60;99.90;;;;;;20753263;28;20210;-68
2023/03/29 11:20:22;;;;;;;1.43;0.70;;;;;;;;;;20819392;28;20198;-69
2023/03/29 11:30:36;;;;;;;0.90;0.57;;;;;;;;;;20818040;28;20218;-68
2023/03/29 11:40:43;;;;;;;1.27;0.70;;;;;;;;;;20817783;28;20791;-68
2023/03/29 11:51:17;;;;;;;2.17;0.70;;;14.40;99.90;;;;;;20800832;28;20231;-69
2023/03/29 12:01:33;;;;;;;1.10;0.70;;;14.00;99.90;;;;;;20735559;28;20203;-67
2023/03/29 12:11:42;;;;;;;2.93;0.70;;;;;;;;;;20734337;28;20239;-67
2023/03/29 12:21:45;;;;;;;0.97;0.70;;;;;;;;;;20738175;28;20636;-67
2023/03/29 12:31:54;;;;;;;2.10;0.60;;;;;;;;;;20747517;28;20756;-66
2023/03/29 12:42:17;;;;;;;0.80;0.60;;;14.60;99.90;;;;;;20746813;28;20207;-66
2023/03/29 12:52:48;;;;;;;0.60;0.57;;;;;;;;;;20797263;28;20565;-70
2023/03/29 13:03:05;;;;;;;0.70;0.70;;;;;;;;;;20761380;28;20284;-71
2023/03/29 13:13:11;;;;;;;1.00;0.50;;;;;;;;;;20812660;28;20234;-71
2023/03/29 13:23:29;;;;;;;0.77;0.47;;;15.60;99.90;;;;;;20756292;28;20215;-71
2023/03/29 13:33:54;;;;;;;0.47;0.37;;;;;;;;;;20754177;28;20223;-71
2023/03/29 13:43:56;;;;;;;0.40;0.40;;;;;;;;;;20738863;28;20266;-71
2023/03/29 13:54:42;;;;;;;1.40;0.60;;;15.30;99.90;;;;;;20767063;28;20206;-71
2023/03/29 14:04:46;;;;;;;0.70;0.60;;;;;;;;;;20805241;28;20599;-69
2023/03/29 14:14:47;;;;;;;0.77;0.50;;;;;;;;;;20817508;28;20237;-72
2023/03/29 14:24:55;;;;;;;0.87;0.40;;;;;;;;;;20800746;28;20268;-70
2023/03/29 14:34:57;;;;;;;0.47;0.40;;;;;;;;;;20817136;28;20304;-70
2023/03/29 14:45:03;;;;;;;0.37;0.30;;;;;;;;;;20816090;28;20260;-70
2023/03/29 14:55:06;;;;;;;1.17;0.30;;;;;;;;;;20798635;28;20210;-70
2023/03/29 15:05:22;;;;;;;0.90;0.50;;;;;;;;;;20817680;28;20649;-73
2023/03/29 15:15:24;;;;;;;1.07;0.50;;;;;;;;;;20816606;28;20676;-71
2023/03/29 15:25:27;;;;;;;0.50;0.40;;;;;;;;;;20817107;28;20288;-71
2023/03/29 15:35:30;;;;;;;0.47;0.33;;;;;;;;;;20815462;28;20215;-71
2023/03/29 15:45:32;;;;;;;0.50;0.40;;;;;;;;;;20816150;28;20272;-71
2023/03/29 15:55:34;;;;;;;4.93;1.00;;;;;;;;;;20817854;28;20218;-70
2023/03/29 16:05:35;;;;;;;1.70;0.63;;;;;;;;;;20814160;28;20214;-71
2023/03/29 16:15:37;;;;;;;0.30;0.30;;;;;;;;;;20813823;28;20202;-71
2023/03/29 16:25:39;;;;;;;1.20;0.53;;;14.70;99.90;;;;;;20789415;28;20230;-71
2023/03/29 16:35:41;;;;;;;1.30;0.70;;;;;;;;;;20783068;28;20210;-71
2023/03/29 16:45:43;;;;;;;1.20;1.03;;;;;;;;;;20793011;28;20802;-71
2023/03/29 16:55:45;;;;;;;0.47;0.30;;;;;;;;;;20789254;28;20241;-71
2023/03/29 17:05:49;;;;;;;0.50;0.47;;;;;;;;;;20795154;28;20251;-70
2023/03/29 17:15:51;;;;;;;0.70;0.50;;;;;;;;;;20803400;28;20697;-71
2023/03/29 17:25:55;;;;;;;1.63;1.00;;;;;;;;;;20788044;28;20272;-71
2023/03/29 17:35:57;;;;;;;1.50;0.70;;;;;;;;;;20786846;28;20227;-70
2023/03/29 17:45:59;;;;;;;1.10;0.70;;;;;;;;;;20733336;28;20258;-69
2023/03/29 17:56:01;;;;;;;2.63;1.10;;;;;;;;;;20737427;28;20203;-71
2023/03/29 18:06:03;;;;;;;1.83;1.00;;;13.90;99.90;;;;;;20736175;28;20223;-71
2023/03/29 18:16:08;;;;;;;1.23;0.70;;;14.00;99.90;;;;;;20736381;28;20207;-70
2023/03/29 18:26:11;;;;;;;2.07;1.10;;;;;;;;;;20734791;28;20219;-71
2023/03/29 18:36:12;;;;;;;0.90;0.60;;;;;;;;;;20736084;28;20265;-71
2023/03/29 18:46:14;;;;;;;1.43;0.90;;;;;;;;;;20795672;23;20582;-69
2023/03/29 18:56:16;;;;;;;2.87;0.90;;;;;;;;;;20900681;28;20263;-70
2023/03/29 19:06:18;;;;;;;0.83;0.57;;;;;;;;;;20894556;28;20704;-67
2023/03/29 19:16:19;;;;;;;1.23;0.80;;;;;;;;;;20898668;28;20226;-67
2023/03/29 19:26:22;;;;;;;0.90;0.67;;;;;;;;;;20893178;28;20217;-67
2023/03/29 19:36:23;;;;;;;1.63;0.97;;;;;;;;;;20907573;28;20231;-70
2023/03/29 19:46:27;;;;;;;2.70;0.90;;;;;;;;;;20909312;28;20263;-70
2023/03/29 19:56:29;;;;;;;4.83;1.00;;;;;;;;;;20908723;28;20236;-69
2023/03/29 20:06:31;;;;;;;2.03;0.90;;;;;;;;;;20908061;28;20660;-67
2023/03/29 20:16:33;;;;;;;1.40;0.90;;;;;;;;;;20951172;28;20213;-67
2023/03/29 20:26:35;;;;;;;0.93;0.57;;;;;;;;;;20997310;28;20220;-67
2023/03/29 20:36:39;;;;;;;0.60;0.50;;;13.30;99.90;;;;;;20994124;28;20225;-67
2023/03/29 20:46:53;;;;;;;0.93;0.60;;;;;;;;;;20993280;28;20213;-69
2023/03/29 20:56:54;;;;;;;2.23;0.77;;;;;;;;;;20995512;28;20205;-69
2023/03/29 21:06:57;;;;;;;1.40;0.90;;;;;;;;;;20993566;28;20711;-69
2023/03/29 21:16:59;;;;;;;1.73;0.90;;;;;;;;;;20992351;28;20231;-69
2023/03/29 21:27:00;;;;;;;1.53;0.80;;;;;;;;;;20992499;28;20219;-69
2023/03/29 21:37:02;;;;;;;1.43;0.90;;;;;;;;;;20991097;28;20250;-69
2023/03/29 21:47:04;;;;;;;2.93;1.50;;;;;;;;;;20990465;28;20213;-68
2023/03/29 21:57:06;;;;;;;3.03;0.90;;;;;;;;;;20987800;28;20512;-68
2023/03/29 22:07:09;;;;;;;2.33;0.90;;;;;;;;;;20927272;28;20770;-68
2023/03/29 22:17:11;;;;;;;9.43;1.17;;;;;;;;;;20905475;28;20631;-68
2023/03/29 22:27:12;;;;;;;2.03;0.90;;;;;;;;;;20904597;28;20697;-68
2023/03/29 22:37:14;;;;;;;0.77;0.60;;;;;;;;;;20903273;28;20217;-68
2023/03/29 22:47:16;;;;;;;1.90;0.97;;;;;;;;;;20904320;28;20774;-68
2023/03/29 22:57:18;;;;;;;0.97;0.60;;;;;;;;;;20902649;28;20210;-68
2023/03/29 23:07:19;;;;;;;1.73;0.60;;;;;;;;;;20901841;28;20275;-68
2023/03/29 23:17:21;;;;;;;1.63;0.60;;;;;;;;;;20901224;28;20222;-68
2023/03/29 23:27:24;;;;;;;1.77;0.73;;;;;;;;;;20902091;28;20238;-68
2023/03/29 23:37:26;;;;;;;1.77;0.70;;;;;;;;;;20900767;28;20695;-68
2023/03/29 23:47:28;;;;;;;3.00;0.83;;;;;;;;;;20923701;28;20781;-68
2023/03/29 23:57:33;;;;;;;2.10;0.77;;;;;;;;;;20981201;28;20576;-68
